createdAt,value
2023-05-21T00:01:16.503Z,16.57
2023-05-21T00:04:15.635Z,16.50
2023-05-21T00:07:12.810Z,16.42
2023-05-21T00:10:10.186Z,16.17
2023-05-21T00:13:08.994Z,16.68
2023-05-21T00:16:06.387Z,16.33
2023-05-21T00:19:03.575Z,16.39
2023-05-21T00:22:03.706Z,16.44
2023-05-21T00:25:00.611Z,16.17
2023-05-21T00:27:58.259Z,16.33
2023-05-21T00:30:55.135Z,16.50
2023-05-21T00:33:52.443Z,16.14
2023-05-21T00:36:49.320Z,16.21
2023-05-21T00:39:46.350Z,16.42
2023-05-21T00:42:46.482Z,16.17
2023-05-21T00:45:44.508Z,16.11
2023-05-21T00:48:41.600Z,16.33
2023-05-21T00:51:38.511Z,16.22
2023-05-21T00:54:35.459Z,16.21
2023-05-21T00:57:33.309Z,16.23
2023-05-21T01:00:33.530Z,16.40
2023-05-21T01:03:31.075Z,16.21
2023-05-21T01:06:28.490Z,16.35
2023-05-21T01:09:26.822Z,16.17
2023-05-21T01:12:23.946Z,16.03
2023-05-21T01:15:21.029Z,16.33
2023-05-21T01:18:20.103Z,16.07
2023-05-21T01:21:18.346Z,16.19
2023-05-21T01:24:16.002Z,16.24
2023-05-21T01:27:13.014Z,16.13
2023-05-21T01:30:10.733Z,16.03
2023-05-21T01:33:29.629Z,16.11
2023-05-21T01:36:34.709Z,16.29
2023-05-21T01:39:38.275Z,16.12
2023-05-21T01:42:38.982Z,16.10
2023-05-21T01:45:39.419Z,15.95
2023-05-21T01:48:37.993Z,15.97
2023-05-21T01:51:35.862Z,16.15
2023-05-21T01:54:32.720Z,16.02
2023-05-21T01:57:29.644Z,15.99
2023-05-21T02:00:29.446Z,16.12
2023-05-21T02:03:28.191Z,15.77
2023-05-21T02:06:25.220Z,15.45
2023-05-21T02:09:22.078Z,15.73
2023-05-21T02:12:18.926Z,15.89
2023-05-21T02:15:17.857Z,15.89
2023-05-21T02:18:18.466Z,15.80
2023-05-21T02:21:15.595Z,15.98
2023-05-21T02:24:12.449Z,15.73
2023-05-21T02:27:10.633Z,15.82
2023-05-21T02:30:11.976Z,15.92
2023-05-21T02:33:09.311Z,15.70
2023-05-21T02:36:12.879Z,15.45
2023-05-21T02:39:09.783Z,15.59
2023-05-21T02:42:06.675Z,15.73
2023-05-21T02:45:03.808Z,15.77
2023-05-21T02:48:00.732Z,15.73
2023-05-21T02:50:58.431Z,15.69
2023-05-21T02:53:55.374Z,15.75
2023-05-21T02:56:52.238Z,15.78
2023-05-21T02:59:49.087Z,15.71
2023-05-21T03:02:46.101Z,15.80
2023-05-21T03:05:43.043Z,15.76
2023-05-21T03:08:39.890Z,15.52
2023-05-21T03:11:37.106Z,15.65
2023-05-21T03:14:34.048Z,15.58
2023-05-21T03:17:31.201Z,15.71
2023-05-21T03:20:28.912Z,15.79
2023-05-21T03:23:26.907Z,15.67
2023-05-21T03:26:23.996Z,15.44
2023-05-21T03:29:20.869Z,15.53
2023-05-21T03:32:17.778Z,15.61
2023-05-21T03:35:14.773Z,15.51
2023-05-21T03:38:11.653Z,15.66
2023-05-21T03:41:09.354Z,15.70
2023-05-21T03:44:06.222Z,15.62
2023-05-21T03:47:03.086Z,15.65
2023-05-21T03:50:00.042Z,15.33
2023-05-21T03:52:56.969Z,15.54
2023-05-21T03:55:55.417Z,15.70
2023-05-21T03:58:52.796Z,15.61
2023-05-21T04:01:49.649Z,15.59
2023-05-21T04:04:47.575Z,15.36
2023-05-21T04:07:46.474Z,15.52
2023-05-21T04:10:43.348Z,15.57
2023-05-21T04:13:40.507Z,15.25
2023-05-21T04:16:38.805Z,15.71
2023-05-21T04:19:35.852Z,15.66
2023-05-21T04:22:33.722Z,15.56
2023-05-21T04:25:30.612Z,15.71
2023-05-21T04:28:28.777Z,15.73
2023-05-21T04:31:25.942Z,15.82
2023-05-21T04:34:22.849Z,15.93
2023-05-21T04:37:19.847Z,15.86
2023-05-21T04:40:18.279Z,16.15
2023-05-21T04:43:17.113Z,16.08
2023-05-21T04:46:14.099Z,16.19
2023-05-21T04:49:11.594Z,16.30
2023-05-21T04:52:08.466Z,16.26
2023-05-21T04:55:06.489Z,16.34
2023-05-21T04:58:03.330Z,16.32
2023-05-21T05:01:03.244Z,16.40
2023-05-21T05:04:00.471Z,16.23
2023-05-21T05:06:57.423Z,16.45
2023-05-21T05:09:54.288Z,16.55
2023-05-21T05:12:51.345Z,16.45
2023-05-21T05:15:50.199Z,16.59
2023-05-21T05:18:47.953Z,16.72
2023-05-21T05:21:44.848Z,16.73
2023-05-21T05:24:41.865Z,16.72
2023-05-21T05:27:38.780Z,16.78
2023-05-21T05:30:36.273Z,16.73
2023-05-21T05:33:33.216Z,16.69
2023-05-21T05:36:30.283Z,16.75
2023-05-21T05:39:27.187Z,16.81
2023-05-21T05:42:24.038Z,16.85
2023-05-21T05:45:21.139Z,17.02
2023-05-21T05:48:18.088Z,17.08
2023-05-21T05:51:15.457Z,17.10
2023-05-21T05:54:12.345Z,17.16
2023-05-21T05:57:09.518Z,17.41
2023-05-21T06:00:09.651Z,17.43
2023-05-21T06:03:06.610Z,17.55
2023-05-21T06:06:03.694Z,17.88
2023-05-21T06:09:01.016Z,17.84
2023-05-21T06:11:58.175Z,17.91
2023-05-21T06:14:55.035Z,18.05
2023-05-21T06:17:51.944Z,18.14
2023-05-21T06:20:48.811Z,17.99
2023-05-21T06:23:45.855Z,18.08
2023-05-21T06:26:42.737Z,18.55
2023-05-21T06:29:40.844Z,18.44
2023-05-21T06:32:37.848Z,18.55
2023-05-21T06:35:37.184Z,18.59
2023-05-21T06:38:34.662Z,18.71
2023-05-21T06:41:31.709Z,18.81
2023-05-21T06:44:28.618Z,18.91
2023-05-21T06:47:25.504Z,18.86
2023-05-21T06:50:22.407Z,18.83
2023-05-21T06:53:19.620Z,19.10
2023-05-21T06:56:16.592Z,19.30
2023-05-21T06:59:13.461Z,19.53
2023-05-21T07:02:10.453Z,19.98
2023-05-21T07:05:08.123Z,19.85
2023-05-21T07:08:05.024Z,19.76
2023-05-21T07:11:01.941Z,19.77
2023-05-21T07:14:03.931Z,20.30
2023-05-21T07:17:00.892Z,20.18
2023-05-21T07:19:57.802Z,20.27
2023-05-21T07:22:54.653Z,20.32
2023-05-21T07:25:51.645Z,20.52
2023-05-21T07:28:48.500Z,20.30
2023-05-21T07:31:45.469Z,20.60
2023-05-21T07:34:42.358Z,20.61
2023-05-21T07:37:39.238Z,20.75
2023-05-21T07:40:36.368Z,20.88
2023-05-21T07:43:33.227Z,20.85
2023-05-21T07:46:30.174Z,20.95
2023-05-21T07:49:27.106Z,20.99
2023-05-21T07:52:24.021Z,20.92
2023-05-21T07:55:21.330Z,21.48
2023-05-21T07:58:19.609Z,21.54
2023-05-21T08:01:17.243Z,21.64
2023-05-21T08:04:14.500Z,21.92
2023-05-21T08:07:13.713Z,22.36
2023-05-21T08:10:11.241Z,22.78
2023-05-21T08:13:08.234Z,22.77
2023-05-21T08:16:06.247Z,22.85
2023-05-21T08:19:03.737Z,22.64
2023-05-21T08:22:00.685Z,22.82
2023-05-21T08:24:57.572Z,23.05
2023-05-21T08:27:54.698Z,23.54
2023-05-21T08:30:51.564Z,23.90
2023-05-21T08:33:53.010Z,23.73
2023-05-21T08:36:53.901Z,24.45
2023-05-21T08:39:50.747Z,24.08
2023-05-21T08:42:51.603Z,23.87
2023-05-21T08:45:55.086Z,23.86
2023-05-21T08:48:55.821Z,24.01
2023-05-21T08:51:53.749Z,23.93
2023-05-21T08:54:52.401Z,24.63
2023-05-21T08:57:50.383Z,25.13
2023-05-21T09:00:47.254Z,25.21
2023-05-21T09:03:44.302Z,25.27
2023-05-21T09:06:41.638Z,25.28
2023-05-21T09:09:52.156Z,25.23
2023-05-21T09:12:49.126Z,25.07
2023-05-21T09:15:46.930Z,24.93
2023-05-21T09:18:43.891Z,24.65
2023-05-21T09:21:40.767Z,24.33
2023-05-21T09:24:37.681Z,24.48
2023-05-21T09:27:35.143Z,25.08
2023-05-21T09:30:35.710Z,25.29
2023-05-21T09:33:33.166Z,25.33
2023-05-21T09:36:30.077Z,25.13
2023-05-21T09:39:33.393Z,25.15
2023-05-21T09:42:30.803Z,25.21
2023-05-21T09:45:28.854Z,25.98
2023-05-21T09:48:42.764Z,25.94
2023-05-21T09:51:40.099Z,26.71
2023-05-21T09:54:36.974Z,27.26
2023-05-21T09:57:40.085Z,27.55
2023-05-21T10:00:37.196Z,27.15
2023-05-21T10:06:43.404Z,27.81
2023-05-21T10:09:41.255Z,27.39
2023-05-21T10:12:40.424Z,27.16
2023-05-21T10:15:43.825Z,26.96
2023-05-21T10:18:42.419Z,26.32
2023-05-21T10:21:39.981Z,27.74
2023-05-21T10:24:38.040Z,26.75
2023-05-21T10:27:38.188Z,26.72
2023-05-21T10:30:37.344Z,26.11
2023-05-21T10:33:36.589Z,27.48
2023-05-21T10:36:36.351Z,27.73
2023-05-21T10:39:34.436Z,28.69
2023-05-21T10:42:31.165Z,30.05
2023-05-21T10:46:09.252Z,29.42
2023-05-21T10:49:18.577Z,29.39
2023-05-21T10:52:50.008Z,29.47
2023-05-21T10:56:22.858Z,28.49
2023-05-21T10:59:43.775Z,27.50
2023-05-21T11:02:41.001Z,29.49
2023-05-21T11:05:51.315Z,29.92
2023-05-21T11:08:48.367Z,29.56
2023-05-21T11:11:54.068Z,28.25
2023-05-21T11:14:58.050Z,29.66
2023-05-21T11:17:57.244Z,29.04
2023-05-21T11:20:54.161Z,28.00
2023-05-21T11:23:51.064Z,28.38
2023-05-21T11:26:47.887Z,29.15
2023-05-21T11:29:45.624Z,29.31
2023-05-21T11:33:07.437Z,28.91
2023-05-21T11:36:13.183Z,27.19
2023-05-21T11:39:13.020Z,27.43
2023-05-21T11:42:09.884Z,27.77
2023-05-21T11:45:08.121Z,28.00
2023-05-21T11:48:06.300Z,27.72
2023-05-21T11:51:03.298Z,28.01
2023-05-21T11:54:01.172Z,28.94
2023-05-21T11:56:58.745Z,27.42
2023-05-21T11:59:56.306Z,27.78
2023-05-21T12:02:55.554Z,27.33
2023-05-21T12:05:53.980Z,28.80
2023-05-21T12:08:58.138Z,30.00
2023-05-21T12:11:55.146Z,30.43
2023-05-21T12:14:54.232Z,29.31
2023-05-21T12:17:52.914Z,28.18
2023-05-21T12:20:52.184Z,27.74
2023-05-21T12:23:49.242Z,27.35
2023-05-21T12:26:46.517Z,27.46
2023-05-21T12:29:46.602Z,28.61
2023-05-21T12:32:44.368Z,29.49
2023-05-21T12:35:41.384Z,29.67
2023-05-21T12:38:38.352Z,30.35
2023-05-21T12:41:35.406Z,29.36
2023-05-21T12:44:33.498Z,30.71
2023-05-21T12:47:33.275Z,31.25
2023-05-21T12:50:30.271Z,31.09
2023-05-21T12:53:41.935Z,30.48
2023-05-21T12:56:46.373Z,31.41
2023-05-21T13:00:00.431Z,30.16
2023-05-21T13:03:00.069Z,30.50
2023-05-21T13:06:01.242Z,31.67
2023-05-21T13:08:58.145Z,30.53
2023-05-21T13:11:54.995Z,30.76
2023-05-21T13:14:57.474Z,30.97
2023-05-21T13:17:56.050Z,30.23
2023-05-21T13:20:53.893Z,29.87
2023-05-21T13:23:50.819Z,28.72
2023-05-21T13:26:47.715Z,28.73
2023-05-21T13:29:44.574Z,28.61
2023-05-21T13:32:42.769Z,29.24
2023-05-21T13:35:39.862Z,28.75
2023-05-21T13:38:36.756Z,29.16
2023-05-21T13:41:33.676Z,28.25
2023-05-21T13:44:33.290Z,29.67
2023-05-21T13:47:30.549Z,29.75
2023-05-21T13:50:27.554Z,29.21
2023-05-21T13:53:24.425Z,29.17
2023-05-21T13:56:21.845Z,29.23
2023-05-21T13:59:19.145Z,28.93
2023-05-21T14:02:16.329Z,28.72
2023-05-21T14:05:13.588Z,29.05
2023-05-21T14:08:10.536Z,28.36
2023-05-21T14:11:07.409Z,28.91
2023-05-21T14:14:04.783Z,28.15
2023-05-21T14:17:01.808Z,28.06
2023-05-21T14:19:58.792Z,28.39
2023-05-21T14:22:55.787Z,28.94
2023-05-21T14:25:52.777Z,29.43
2023-05-21T14:28:49.763Z,30.00
2023-05-21T14:31:46.696Z,28.60
2023-05-21T14:34:43.563Z,27.96
2023-05-21T14:37:42.032Z,28.94
2023-05-21T14:40:39.035Z,29.06
2023-05-21T14:43:36.234Z,28.70
2023-05-21T14:46:33.344Z,28.26
2023-05-21T14:49:30.267Z,28.31
2023-05-21T14:52:27.124Z,27.74
2023-05-21T14:55:24.025Z,26.91
2023-05-21T14:58:20.962Z,29.61
2023-05-21T15:01:18.515Z,27.74
2023-05-21T15:04:15.487Z,28.18
2023-05-21T15:07:12.414Z,28.31
2023-05-21T15:10:10.017Z,28.47
2023-05-21T15:13:07.233Z,27.86
2023-05-21T15:16:04.371Z,27.95
2023-05-21T15:19:01.477Z,28.05
2023-05-21T15:21:58.646Z,27.96
2023-05-21T15:24:55.640Z,28.68
2023-05-21T15:27:54.583Z,28.00
2023-05-21T15:30:51.510Z,27.73
2023-05-21T15:33:49.029Z,28.20
2023-05-21T15:36:46.183Z,27.98
2023-05-21T15:39:44.290Z,27.73
2023-05-21T15:42:41.406Z,27.32
2023-05-21T15:45:38.878Z,27.06
2023-05-21T15:48:36.272Z,27.41
2023-05-21T15:51:33.151Z,27.12
2023-05-21T15:54:30.694Z,27.55
2023-05-21T15:57:27.560Z,27.46
2023-05-21T16:00:24.527Z,27.01
2023-05-21T16:03:21.449Z,26.41
2023-05-21T16:06:19.808Z,25.85
2023-05-21T16:09:16.684Z,26.99
2023-05-21T16:12:13.634Z,27.03
2023-05-21T16:15:10.838Z,27.08
2023-05-21T16:18:09.629Z,27.49
2023-05-21T16:21:06.651Z,27.98
2023-05-21T16:24:04.049Z,27.54
2023-05-21T16:27:00.922Z,27.34
2023-05-21T16:29:58.391Z,27.57
2023-05-21T16:32:55.311Z,28.28
2023-05-21T16:35:54.374Z,28.03
2023-05-21T16:38:51.318Z,27.51
2023-05-21T16:41:48.203Z,27.11
2023-05-21T16:44:45.045Z,27.47
2023-05-21T16:47:41.947Z,27.52
2023-05-21T16:50:40.015Z,27.35
2023-05-21T16:53:36.965Z,27.23
2023-05-21T16:56:33.859Z,27.52
2023-05-21T16:59:30.751Z,27.13
2023-05-21T17:02:27.676Z,26.81
2023-05-21T17:05:25.945Z,26.79
2023-05-21T17:08:22.812Z,26.59
2023-05-21T17:11:19.685Z,26.39
2023-05-21T17:14:27.005Z,26.51
2023-05-21T17:17:31.053Z,26.23
2023-05-21T17:20:27.963Z,26.68
2023-05-21T17:23:24.944Z,26.38
2023-05-21T17:26:22.392Z,26.29
2023-05-21T17:29:19.524Z,26.43
2023-05-21T17:32:16.866Z,26.34
2023-05-21T17:35:13.756Z,26.20
2023-05-21T17:38:10.717Z,26.01
2023-05-21T17:41:07.656Z,25.73
2023-05-21T17:44:04.764Z,26.06
2023-05-21T17:47:01.775Z,26.06
2023-05-21T17:49:58.658Z,25.89
2023-05-21T17:52:55.518Z,26.14
2023-05-21T17:55:52.423Z,25.14
2023-05-21T17:58:50.281Z,25.02
2023-05-21T18:01:47.182Z,24.42
2023-05-21T18:04:44.022Z,24.77
2023-05-21T18:07:41.425Z,24.50
2023-05-21T18:10:38.386Z,24.51
2023-05-21T18:13:35.260Z,24.09
2023-05-21T18:16:32.207Z,24.23
2023-05-21T18:19:32.215Z,24.48
2023-05-21T18:22:29.119Z,24.23
2023-05-21T18:25:25.970Z,24.20
2023-05-21T18:28:22.832Z,24.00
2023-05-21T18:31:20.197Z,23.99
2023-05-21T18:34:17.443Z,23.72
2023-05-21T18:37:14.798Z,23.88
2023-05-21T18:40:13.207Z,23.66
2023-05-21T18:43:10.872Z,23.71
2023-05-21T18:46:07.890Z,23.50
2023-05-21T18:49:05.677Z,23.23
2023-05-21T18:52:02.606Z,23.19
2023-05-21T18:54:59.443Z,23.20
2023-05-21T18:57:56.659Z,22.99
2023-05-21T19:00:53.544Z,22.67
2023-05-21T19:03:50.459Z,22.93
2023-05-21T19:06:47.563Z,22.78
2023-05-21T19:09:44.475Z,22.52
2023-05-21T19:12:42.656Z,22.62
2023-05-21T19:15:39.844Z,22.38
2023-05-21T19:18:37.049Z,22.24
2023-05-21T19:21:33.950Z,22.25
2023-05-21T19:24:30.783Z,22.21
2023-05-21T19:27:29.337Z,22.07
2023-05-21T19:30:26.874Z,22.18
2023-05-21T19:33:23.800Z,22.20
2023-05-21T19:36:21.606Z,22.02
2023-05-21T19:39:18.482Z,21.65
2023-05-21T19:42:17.132Z,21.88
2023-05-21T19:45:15.552Z,21.66
2023-05-21T19:48:12.515Z,21.75
2023-05-21T19:51:09.463Z,21.75
2023-05-21T19:54:06.372Z,21.86
2023-05-21T19:57:03.482Z,21.86
2023-05-21T20:00:00.457Z,21.92
2023-05-21T20:02:57.696Z,22.02
2023-05-21T20:05:54.758Z,21.96
2023-05-21T20:08:52.158Z,21.61
2023-05-21T20:11:49.029Z,21.60
2023-05-21T20:14:47.427Z,21.38
2023-05-21T20:17:44.698Z,21.27
2023-05-21T20:20:41.822Z,21.10
2023-05-21T20:23:38.875Z,21.06
2023-05-21T20:26:36.450Z,21.13
2023-05-21T20:29:33.358Z,21.45
2023-05-21T20:32:30.244Z,21.20
2023-05-21T20:35:27.729Z,21.14
2023-05-21T20:38:28.128Z,21.04
2023-05-21T20:41:25.283Z,20.96
2023-05-21T20:44:22.559Z,20.89
2023-05-21T20:47:20.278Z,20.85
2023-05-21T20:50:26.095Z,20.72
2023-05-21T20:53:23.670Z,20.84
2023-05-21T20:56:29.910Z,20.16
2023-05-21T20:59:37.422Z,20.22
2023-05-21T21:02:34.342Z,20.15
2023-05-21T21:05:31.356Z,20.33
2023-05-21T21:08:28.252Z,20.51
2023-05-21T21:11:26.645Z,20.83
2023-05-21T21:14:23.522Z,20.40
2023-05-21T21:17:20.673Z,20.16
2023-05-21T21:20:18.641Z,19.97
2023-05-21T21:23:16.502Z,19.77
2023-05-21T21:26:13.366Z,19.82
2023-05-21T21:29:10.365Z,19.77
2023-05-21T21:32:07.931Z,19.49
2023-05-21T21:35:05.955Z,19.48
2023-05-21T21:38:04.882Z,19.73
2023-05-21T21:41:01.855Z,19.38
2023-05-21T21:43:58.966Z,19.18
2023-05-21T21:46:55.824Z,19.29
2023-05-21T21:49:52.672Z,19.23
2023-05-21T21:52:49.657Z,19.35
2023-05-21T21:55:46.522Z,19.20
2023-05-21T21:58:43.372Z,19.25
2023-05-21T22:01:40.376Z,19.13
2023-05-21T22:04:37.372Z,19.23
2023-05-21T22:07:35.022Z,18.99
2023-05-21T22:10:33.546Z,18.80
2023-05-21T22:13:30.470Z,18.93
2023-05-21T22:16:28.289Z,18.95
2023-05-21T22:19:25.358Z,18.64
2023-05-21T22:22:23.178Z,18.84
2023-05-21T22:25:20.142Z,18.80
2023-05-21T22:28:17.033Z,18.70
2023-05-21T22:31:13.921Z,18.29
2023-05-21T22:34:11.002Z,18.30
2023-05-21T22:37:07.839Z,18.44
2023-05-21T22:40:06.889Z,18.62
2023-05-21T22:43:03.876Z,18.43
2023-05-21T22:46:01.801Z,18.51
2023-05-21T22:49:00.173Z,18.59
2023-05-21T22:51:58.132Z,18.52
2023-05-21T22:54:55.025Z,18.27
2023-05-21T22:57:52.008Z,18.45
2023-05-21T23:00:49.165Z,18.57
2023-05-21T23:03:46.102Z,18.51
2023-05-21T23:06:43.148Z,18.39
2023-05-21T23:09:40.176Z,18.51
2023-05-21T23:12:37.462Z,18.17
2023-05-21T23:15:34.338Z,18.36
2023-05-21T23:18:31.260Z,17.66
2023-05-21T23:21:28.259Z,18.06
2023-05-21T23:24:25.149Z,17.54
2023-05-21T23:27:22.007Z,18.18
2023-05-21T23:30:18.942Z,18.07
2023-05-21T23:33:15.789Z,17.78
2023-05-21T23:36:12.653Z,17.61
2023-05-21T23:39:09.504Z,18.03
2023-05-21T23:42:06.792Z,17.96
2023-05-21T23:45:04.572Z,17.85
2023-05-21T23:48:01.518Z,17.55
2023-05-21T23:50:58.472Z,17.75
2023-05-21T23:53:55.346Z,17.61
2023-05-21T23:56:52.244Z,17.75
2023-05-21T23:59:49.145Z,17.66
